Wednesday, June 20, 2018, 5:16 PM EDT
Back to Local

KFMH, Otis Air National Guard Base

Location: Mashpee, MA, United States Lat: 41.65
Local Time: 5:16 PM EDT (21:16 GMT) Lon: -70.517
Time Zone: US/Eastern Elev: 131 ft

Show me the last for .
Show Decoded

2018-06-20 16:35 METAR KFMH 202035Z AUTO 23015G21KT 10SM CLR 23/15 A2983 RMK AO2 =
2018-06-20 16:15 METAR KFMH 202015Z AUTO 22014G21KT 10SM CLR 23/15 A2983 RMK AO2 =
2018-06-20 15:55 METAR KFMH 201955Z AUTO 22016G22KT 10SM CLR 23/15 A2983 RMK AO2 =
2018-06-20 15:35 METAR KFMH 201935Z AUTO 23017G24KT 10SM CLR 24/14 A2984 RMK AO2 =
2018-06-20 15:15 METAR KFMH 201915Z AUTO 23017KT 10SM CLR 23/14 A2984 RMK AO2 =
2018-06-20 14:55 METAR KFMH 201855Z AUTO 23018KT 10SM CLR 23/14 A2984 RMK AO2 =
2018-06-20 14:35 METAR KFMH 201835Z AUTO 22018G24KT 10SM CLR 24/15 A2985 RMK AO2 =
2018-06-20 14:15 METAR KFMH 201815Z AUTO 23016KT 10SM CLR 24/15 A2984 RMK AO2 =
2018-06-20 13:55 METAR KFMH 201755Z AUTO 22012G24KT 10SM CLR 24/15 A2985 RMK AO2 =
2018-06-20 13:35 METAR KFMH 201735Z AUTO 23017G25KT 10SM CLR 24/14 A2986 RMK AO2 =
2018-06-20 13:15 METAR KFMH 201715Z AUTO 22016G24KT 10SM CLR 24/14 A2987 RMK AO2 =
2018-06-20 12:55 METAR KFMH 201655Z AUTO 23017KT 10SM FEW037 25/15 A2987 RMK AO2 =
2018-06-20 12:35 METAR KFMH 201635Z AUTO 20015KT 10SM FEW036 25/15 A2987 RMK AO2 =
2018-06-20 12:15 METAR KFMH 201615Z AUTO 21013G21KT 10SM SCT036 25/14 A2988 RMK AO2 =
2018-06-20 11:55 METAR KFMH 201555Z AUTO 21016KT 10SM FEW036 24/15 A2989 RMK AO2 =
2018-06-20 11:35 METAR KFMH 201535Z AUTO 22010G18KT 10SM CLR 23/15 A2990 RMK AO2 =
2018-06-20 11:15 METAR KFMH 201515Z AUTO 21012KT 10SM CLR 23/15 A2990 RMK AO2 =
2018-06-20 10:55 METAR KFMH 201455Z AUTO 21009KT 10SM CLR 23/15 A2990 RMK AO2 =
2018-06-20 10:35 METAR KFMH 201435Z AUTO 21007G14KT 10SM CLR 23/15 A2990 RMK AO2 =
2018-06-20 10:15 METAR KFMH 201415Z AUTO 19008KT 10SM CLR 23/15 A2991 RMK AO2 =
2018-06-20 09:55 METAR KFMH 201355Z AUTO 16008KT 150V220 10SM CLR 23/12 A2991 RMK AO2 =
2018-06-20 09:35 METAR KFMH 201335Z AUTO 18007KT 10SM CLR 22/11 A2991 RMK AO2 =
2018-06-20 09:15 METAR KFMH 201315Z AUTO 19007KT 10SM CLR 22/11 A2992 RMK AO2 =
2018-06-20 08:55 METAR KFMH 201255Z AUTO 17004KT 10SM CLR 22/12 A2992 RMK AO2 =
2018-06-20 08:35 METAR KFMH 201235Z AUTO 15005KT 10SM CLR 21/12 A2992 RMK AO2 =
2018-06-20 08:15 METAR KFMH 201215Z AUTO 12006KT 10SM CLR 21/12 A2993 RMK AO2 =
2018-06-20 07:55 METAR KFMH 201155Z AUTO 14004KT 9SM CLR 20/11 A2993 RMK AO2 =
2018-06-20 07:35 METAR KFMH 201135Z AUTO 00000KT 10SM CLR 19/13 A2993 RMK AO2 =
2018-06-20 07:15 METAR KFMH 201115Z AUTO 00000KT 10SM CLR 18/14 A2992 RMK AO2 =
2018-06-20 06:55 METAR KFMH 201055Z AUTO 00000KT 10SM CLR 17/13 A2991 RMK AO2 =
2018-06-20 06:35 METAR KFMH 201035Z AUTO 00000KT 10SM CLR 15/12 A2991 RMK AO2 =
2018-06-20 06:15 METAR KFMH 201015Z AUTO 00000KT 10SM CLR 13/11 A2991 RMK AO2 =
2018-06-20 05:55 METAR KFMH 200955Z AUTO 00000KT 10SM CLR 12/10 A2991 RMK AO2 =
2018-06-20 05:35 METAR KFMH 200935Z AUTO 00000KT 10SM CLR 11/10 A2990 RMK AO2 =
2018-06-20 05:15 METAR KFMH 200915Z AUTO 00000KT 9SM CLR 11/10 A2989 RMK AO2 =
2018-06-20 04:55 METAR KFMH 200855Z AUTO 00000KT 10SM CLR 10/10 A2988 RMK AO2 =
2018-06-20 04:35 METAR KFMH 200835Z AUTO 00000KT 10SM CLR 11/10 A2989 RMK AO2 =
2018-06-20 04:15 METAR KFMH 200815Z AUTO 00000KT 10SM CLR 12/11 A2989 RMK AO2 =
2018-06-20 03:55 METAR KFMH 200755Z AUTO 00000KT 10SM CLR 11/10 A2988 RMK AO2 =
2018-06-20 03:35 METAR KFMH 200735Z AUTO 00000KT 10SM CLR 12/10 A2988 RMK AO2 =
2018-06-20 03:15 METAR KFMH 200715Z AUTO 00000KT 10SM CLR 12/10 A2989 RMK AO2 =
2018-06-20 02:55 METAR KFMH 200655Z AUTO 00000KT 10SM CLR 13/11 A2988 RMK AO2 =
2018-06-20 02:35 METAR KFMH 200635Z AUTO 00000KT 10SM CLR 14/11 A2988 RMK AO2 =
2018-06-20 02:15 METAR KFMH 200615Z AUTO 00000KT 9SM CLR 14/11 A2988 RMK AO2 =
2018-06-20 01:55 METAR KFMH 200555Z AUTO 00000KT 10SM CLR 15/10 A2988 RMK AO2 =
2018-06-20 01:35 METAR KFMH 200535Z AUTO 32004KT 10SM CLR 15/10 A2988 RMK AO2 LTG DSNT S =
2018-06-20 01:15 METAR KFMH 200515Z AUTO 30004KT 10SM CLR 14/11 A2988 RMK AO2 =
2018-06-20 00:55 METAR KFMH 200455Z AUTO 30006KT 10SM CLR 14/11 A2989 RMK AO2 =
2018-06-20 00:35 METAR KFMH 200435Z AUTO 33003KT 10SM CLR 14/13 A2989 RMK AO2 =
2018-06-20 00:15 METAR KFMH 200415Z AUTO 35004KT 10SM CLR 15/14 A2988 RMK AO2 =
2018-06-19 23:55 METAR KFMH 200355Z AUTO 00000KT 10SM CLR 14/13 A2988 RMK AO2 LTG DSNT S =
2018-06-19 23:35 METAR KFMH 200335Z AUTO 00000KT 10SM CLR 15/13 A2988 RMK AO2 =
2018-06-19 23:15 METAR KFMH 200315Z AUTO 00000KT 10SM CLR 15/14 A2988 RMK AO2 =
2018-06-19 22:55 METAR KFMH 200255Z AUTO 00000KT 10SM CLR 16/14 A2988 RMK AO2 =
2018-06-19 22:35 METAR KFMH 200235Z AUTO 00000KT 10SM CLR 16/13 A2987 RMK AO2 =
2018-06-19 22:15 METAR KFMH 200215Z AUTO 00000KT 10SM CLR 17/14 A2987 RMK AO2 =
2018-06-19 21:55 METAR KFMH 200155Z AUTO 00000KT 10SM CLR 17/14 A2986 RMK AO2 =
2018-06-19 21:35 METAR KFMH 200135Z AUTO 00000KT 10SM CLR 18/14 A2985 RMK AO2 =
2018-06-19 21:15 METAR KFMH 200115Z AUTO 00000KT 9SM CLR 18/12 A2985 RMK AO2 =
2018-06-19 20:55 METAR KFMH 200055Z AUTO 36003KT 10SM CLR 19/12 A2984 RMK AO2 =
2018-06-19 20:35 METAR KFMH 200035Z AUTO 00000KT 10SM CLR 20/11 A2983 RMK AO2 =
2018-06-19 20:15 METAR KFMH 200015Z AUTO 00000KT 10SM CLR 21/12 A2982 RMK AO2 =
2018-06-19 19:55 METAR KFMH 192355Z AUTO 01003KT 10SM CLR 23/12 A2982 RMK AO2 =
2018-06-19 19:35 METAR KFMH 192335Z AUTO 34004KT 10SM CLR 23/11 A2982 RMK AO2 =
2018-06-19 19:15 METAR KFMH 192315Z AUTO 34005KT 10SM CLR 24/12 A2980 RMK AO2 =
2018-06-19 18:55 METAR KFMH 192255Z AUTO 00000KT 10SM CLR 24/12 A2980 RMK AO2 =
2018-06-19 18:35 METAR KFMH 192235Z AUTO VRB03KT 10SM CLR 24/12 A2979 RMK AO2 =
2018-06-19 18:15 METAR KFMH 192215Z AUTO 02008KT 10SM CLR 25/12 A2978 RMK AO2 =
2018-06-19 17:55 METAR KFMH 192155Z AUTO 02008KT 10SM CLR 25/12 A2977 RMK AO2 =
2018-06-19 17:35 METAR KFMH 192135Z AUTO 03011KT 10SM CLR 25/12 A2977 RMK AO2 =

Support USWX by starting your Amazon purchase here.